Terminal Aerodrome Forecast
Issued by NWS

Home | Current Version | Previous Version | Text Only | Print | Product List | Glossary On
Versions: 1 2 3 4 5 6 7 8 9 10 11 12 13 14 15 16 17 18 19 20 21 22 23 24 25 26 27 28 29 30 31 32 33 34 35 36 37 38 39 40 41 42 43 44 45 46 47 48 49 50
000
FTUS43 KMKX 020038 AAB
TAFENW
TAF AMD
KENW 020038Z 0201/0224 02010KT 5SM -SHRA OVC005
     FM020500 02009KT P6SM -SHRA SCT005 OVC015
     FM020600 02008KT P6SM SCT015 BKN025
     FM020700 02008KT P6SM OVC035
     FM020900 02007KT P6SM OVC060
     FM021100 01007KT P6SM SCT090
     FM022300 04006KT P6SM SCT100=

USA.gov is the U.S. government's official web portal to all federal, state and local government web resources and services.